createdAt,value
2023-03-31T00:02:14.034Z,49.15
2023-03-31T00:04:46.453Z,49.10
2023-03-31T00:07:14.771Z,49.19
2023-03-31T00:09:46.229Z,49.22
2023-03-31T00:12:16.729Z,49.16
2023-03-31T00:14:43.886Z,49.51
2023-03-31T00:17:11.560Z,49.04
2023-03-31T00:19:40.229Z,49.14
2023-03-31T00:22:07.158Z,49.34
2023-03-31T00:24:34.306Z,49.07
2023-03-31T00:27:04.520Z,49.28
2023-03-31T00:29:33.644Z,48.83
2023-03-31T00:32:00.556Z,49.02
2023-03-31T00:34:28.044Z,49.22
2023-03-31T00:36:56.836Z,49.17
2023-03-31T00:39:28.125Z,49.31
2023-03-31T00:41:54.872Z,49.12
2023-03-31T00:44:25.581Z,49.26
2023-03-31T00:46:55.962Z,48.98
2023-03-31T00:49:30.208Z,49.10
2023-03-31T00:52:08.440Z,48.76
2023-03-31T00:54:35.777Z,48.84
2023-03-31T00:57:03.734Z,48.41
2023-03-31T00:59:31.749Z,48.56
2023-03-31T01:01:59.348Z,48.45
2023-03-31T01:04:26.536Z,48.44
2023-03-31T01:07:04.030Z,48.63
2023-03-31T01:09:35.005Z,48.32
2023-03-31T01:12:03.588Z,48.70
2023-03-31T01:14:31.364Z,48.57
2023-03-31T01:16:58.189Z,48.47
2023-03-31T01:20:01.943Z,48.72
2023-03-31T01:22:53.114Z,48.36
2023-03-31T01:25:38.765Z,48.65
2023-03-31T01:28:23.481Z,48.91
2023-03-31T01:31:23.058Z,48.41
2023-03-31T01:34:27.587Z,48.51
2023-03-31T01:37:14.824Z,48.09
2023-03-31T01:40:28.725Z,48.75
2023-03-31T01:42:59.698Z,47.93
2023-03-31T01:45:28.243Z,48.38
2023-03-31T01:48:03.077Z,48.15
2023-03-31T01:51:03.525Z,48.26
2023-03-31T01:53:34.879Z,48.47
2023-03-31T01:56:16.180Z,48.32
2023-03-31T01:58:47.782Z,48.30
2023-03-31T02:01:22.512Z,48.65
2023-03-31T02:03:54.233Z,48.40
2023-03-31T02:06:24.549Z,48.25
2023-03-31T02:08:57.456Z,48.43
2023-03-31T02:11:24.360Z,48.23
2023-03-31T02:13:52.623Z,48.43
2023-03-31T02:16:24.549Z,48.29
2023-03-31T02:18:53.932Z,48.27
2023-03-31T02:21:20.694Z,48.10
2023-03-31T02:23:47.728Z,48.28
2023-03-31T02:26:25.139Z,47.94
2023-03-31T02:28:52.243Z,47.84
2023-03-31T02:32:00.966Z,48.05
2023-03-31T02:34:28.181Z,48.44
2023-03-31T02:36:54.944Z,48.22
2023-03-31T02:39:25.614Z,48.30
2023-03-31T02:41:52.369Z,48.26
2023-03-31T02:44:19.478Z,47.93
2023-03-31T02:46:46.294Z,48.27
2023-03-31T02:49:13.467Z,48.32
2023-03-31T02:51:46.917Z,47.93
2023-03-31T02:54:35.311Z,48.22
2023-03-31T02:57:12.460Z,48.29
2023-03-31T02:59:58.251Z,48.09
2023-03-31T03:02:31.045Z,48.09
2023-03-31T03:05:27.476Z,48.26
2023-03-31T03:08:32.126Z,48.40
2023-03-31T03:11:08.040Z,48.19
2023-03-31T03:13:48.049Z,48.11
2023-03-31T03:16:24.782Z,48.04
2023-03-31T03:18:59.153Z,48.20
2023-03-31T03:21:26.649Z,48.27
2023-03-31T03:23:53.584Z,48.32
2023-03-31T03:26:24.480Z,48.38
2023-03-31T03:28:51.442Z,48.41
2023-03-31T03:31:19.463Z,48.36
2023-03-31T03:33:46.554Z,48.28
2023-03-31T03:36:13.798Z,48.07
2023-03-31T03:38:40.754Z,48.27
2023-03-31T03:41:07.837Z,48.03
2023-03-31T03:43:34.600Z,48.17
2023-03-31T03:46:01.905Z,48.21
2023-03-31T03:48:28.730Z,48.48
2023-03-31T03:50:55.928Z,48.20
2023-03-31T03:53:22.680Z,48.85
2023-03-31T03:55:49.840Z,48.38
2023-03-31T03:58:17.299Z,48.30
2023-03-31T04:00:45.408Z,48.13
2023-03-31T04:03:13.072Z,48.27
2023-03-31T04:05:40.258Z,48.48
2023-03-31T04:08:08.500Z,48.24
2023-03-31T04:10:35.956Z,48.34
2023-03-31T04:13:03.079Z,48.40
2023-03-31T04:15:30.246Z,48.51
2023-03-31T04:17:58.214Z,48.49
2023-03-31T04:20:31.580Z,48.39
2023-03-31T04:22:58.296Z,48.01
2023-03-31T04:25:25.456Z,48.33
2023-03-31T04:27:55.619Z,48.29
2023-03-31T04:30:30.769Z,48.17
2023-03-31T04:32:59.442Z,48.05
2023-03-31T04:35:28.226Z,48.07
2023-03-31T04:38:02.602Z,48.56
2023-03-31T04:40:29.749Z,48.48
2023-03-31T04:42:56.490Z,48.45
2023-03-31T04:45:23.586Z,48.23
2023-03-31T04:47:50.366Z,48.28
2023-03-31T04:50:17.698Z,48.20
2023-03-31T04:52:44.826Z,48.58
2023-03-31T04:55:11.928Z,49.03
2023-03-31T04:57:38.704Z,48.77
2023-03-31T05:00:09.218Z,48.79
2023-03-31T05:02:36.134Z,48.79
2023-03-31T05:05:04.545Z,48.55
2023-03-31T05:07:31.599Z,48.74
2023-03-31T05:09:58.726Z,48.77
2023-03-31T05:12:25.986Z,49.04
2023-03-31T05:14:53.112Z,48.92
2023-03-31T05:17:19.883Z,48.99
2023-03-31T05:19:46.922Z,49.13
2023-03-31T05:22:13.706Z,49.12
2023-03-31T05:24:40.726Z,49.53
2023-03-31T05:27:07.558Z,49.18
2023-03-31T05:29:34.723Z,49.28
2023-03-31T05:32:01.741Z,49.15
2023-03-31T05:34:28.997Z,49.23
2023-03-31T05:36:55.893Z,49.16
2023-03-31T05:39:22.986Z,49.35
2023-03-31T05:41:49.754Z,49.69
2023-03-31T05:44:16.958Z,49.21
2023-03-31T05:46:44.167Z,49.48
2023-03-31T05:49:11.971Z,49.66
2023-03-31T05:51:38.725Z,50.17
2023-03-31T05:54:06.505Z,49.78
2023-03-31T05:56:33.684Z,49.59
2023-03-31T05:59:01.390Z,49.81
2023-03-31T06:01:30.195Z,50.18
2023-03-31T06:03:57.447Z,50.18
2023-03-31T06:06:25.427Z,49.83
2023-03-31T06:08:52.649Z,50.14
2023-03-31T06:11:21.055Z,50.08
2023-03-31T06:13:48.654Z,50.01
2023-03-31T06:16:17.213Z,50.08
2023-03-31T06:18:44.472Z,50.23
2023-03-31T06:21:16.694Z,50.11
2023-03-31T06:23:47.132Z,50.24
2023-03-31T06:26:15.712Z,50.13
2023-03-31T06:28:43.574Z,50.21
2023-03-31T06:31:14.782Z,50.58
2023-03-31T06:34:21.578Z,50.35
2023-03-31T06:36:48.459Z,50.16
2023-03-31T06:39:21.657Z,50.26
2023-03-31T06:41:48.471Z,50.29
2023-03-31T06:44:19.380Z,50.43
2023-03-31T06:46:46.273Z,50.38
2023-03-31T06:49:13.518Z,50.31
2023-03-31T06:51:40.564Z,50.69
2023-03-31T06:54:07.638Z,50.54
2023-03-31T06:56:34.634Z,50.36
2023-03-31T06:59:01.710Z,50.44
2023-03-31T07:01:28.533Z,50.65
2023-03-31T07:03:55.886Z,50.55
2023-03-31T07:06:53.766Z,50.34
2023-03-31T07:09:23.473Z,50.37
2023-03-31T07:11:50.280Z,50.35
2023-03-31T07:14:17.402Z,50.85
2023-03-31T07:16:44.340Z,50.35
2023-03-31T07:19:11.537Z,50.59
2023-03-31T07:21:38.295Z,50.35
2023-03-31T07:24:05.820Z,50.48
2023-03-31T07:26:32.719Z,50.20
2023-03-31T07:28:59.976Z,50.56
2023-03-31T07:31:26.835Z,50.22
2023-03-31T07:33:53.956Z,50.06
2023-03-31T07:36:20.927Z,50.13
2023-03-31T07:38:49.686Z,50.05
2023-03-31T07:41:20.524Z,50.15
2023-03-31T07:43:47.849Z,50.55
2023-03-31T07:46:22.873Z,49.98
2023-03-31T07:48:49.975Z,50.43
2023-03-31T07:51:18.444Z,50.10
2023-03-31T07:53:46.005Z,49.85
2023-03-31T07:56:12.904Z,50.41
2023-03-31T07:58:40.003Z,50.31
2023-03-31T08:01:08.253Z,49.87
2023-03-31T08:03:35.571Z,49.68
2023-03-31T08:06:02.428Z,49.73
2023-03-31T08:08:29.545Z,49.87
2023-03-31T08:10:56.386Z,49.64
2023-03-31T08:13:23.517Z,49.48
2023-03-31T08:15:50.372Z,49.01
2023-03-31T08:18:17.636Z,49.63
2023-03-31T08:20:44.430Z,49.73
2023-03-31T08:23:12.151Z,49.33
2023-03-31T08:25:38.978Z,49.48
2023-03-31T08:28:06.949Z,49.54
2023-03-31T08:30:33.876Z,49.63
2023-03-31T08:33:00.992Z,49.12
2023-03-31T08:35:27.828Z,48.96
2023-03-31T08:37:54.948Z,49.19
2023-03-31T08:40:26.341Z,48.87
2023-03-31T08:42:55.566Z,49.13
2023-03-31T08:45:23.536Z,49.05
2023-03-31T08:47:58.619Z,49.29
2023-03-31T08:50:27.670Z,49.23
2023-03-31T08:53:04.075Z,48.92
2023-03-31T08:55:42.465Z,49.02
2023-03-31T08:58:15.948Z,48.77
2023-03-31T09:00:52.485Z,48.70
2023-03-31T09:03:26.115Z,48.78
2023-03-31T09:06:07.187Z,48.64
2023-03-31T09:08:35.805Z,48.40
2023-03-31T09:11:32.478Z,48.56
2023-03-31T09:14:18.466Z,48.40
2023-03-31T09:16:49.637Z,47.99
2023-03-31T09:19:25.722Z,48.15
2023-03-31T09:21:53.308Z,48.17
2023-03-31T09:24:27.460Z,48.04
2023-03-31T09:27:07.620Z,48.33
2023-03-31T09:29:38.666Z,47.72
2023-03-31T09:32:18.103Z,47.72
2023-03-31T09:34:46.268Z,47.44
2023-03-31T09:37:13.155Z,47.76
2023-03-31T09:39:40.675Z,47.85
2023-03-31T09:42:07.489Z,47.72
2023-03-31T09:44:41.383Z,47.51
2023-03-31T09:47:12.985Z,47.59
2023-03-31T09:49:40.103Z,47.36
2023-03-31T09:52:35.260Z,47.27
2023-03-31T09:55:05.586Z,46.88
2023-03-31T09:57:39.094Z,47.24
2023-03-31T10:00:16.977Z,47.07
2023-03-31T10:02:50.640Z,46.84
2023-03-31T10:05:26.103Z,46.88
2023-03-31T10:08:14.304Z,46.53
2023-03-31T10:10:45.538Z,46.56
2023-03-31T10:13:14.520Z,46.56
2023-03-31T10:15:42.438Z,46.50
2023-03-31T10:18:16.689Z,46.83
2023-03-31T10:20:45.321Z,46.23
2023-03-31T10:23:29.772Z,46.64
2023-03-31T10:25:56.887Z,46.78
2023-03-31T10:28:23.691Z,46.54
2023-03-31T10:30:55.763Z,46.32
2023-03-31T10:33:25.155Z,46.07
2023-03-31T10:36:26.235Z,46.15
2023-03-31T10:38:53.298Z,46.12
2023-03-31T10:41:24.227Z,45.75
2023-03-31T10:43:55.735Z,46.25
2023-03-31T10:46:49.323Z,46.24
2023-03-31T10:49:22.315Z,46.19
2023-03-31T10:51:59.427Z,46.27
2023-03-31T10:54:26.719Z,46.22
2023-03-31T10:57:05.619Z,45.83
2023-03-31T10:59:48.490Z,45.86
2023-03-31T11:02:51.498Z,45.90
2023-03-31T11:05:39.672Z,46.07
2023-03-31T11:08:42.599Z,45.98
2023-03-31T11:11:25.340Z,45.87
2023-03-31T11:14:08.178Z,45.88
2023-03-31T11:16:58.977Z,45.56
2023-03-31T11:19:35.657Z,45.59
2023-03-31T11:22:26.638Z,45.64
2023-03-31T11:25:03.297Z,45.71
2023-03-31T11:27:51.072Z,45.49
2023-03-31T11:30:21.702Z,45.66
2023-03-31T11:33:21.070Z,45.45
2023-03-31T11:36:06.107Z,45.49
2023-03-31T11:38:53.770Z,45.40
2023-03-31T11:41:27.444Z,45.31
2023-03-31T11:44:02.558Z,45.18
2023-03-31T11:46:56.050Z,44.83
2023-03-31T11:49:30.442Z,44.29
2023-03-31T11:52:01.361Z,44.22
2023-03-31T11:54:34.196Z,44.21
2023-03-31T11:57:10.777Z,43.86
2023-03-31T11:59:37.597Z,43.35
2023-03-31T12:02:11.551Z,43.51
2023-03-31T12:04:40.395Z,43.63
2023-03-31T12:07:31.239Z,43.39
2023-03-31T12:10:05.606Z,43.62
2023-03-31T12:12:42.360Z,43.83
2023-03-31T12:15:27.924Z,43.47
2023-03-31T12:18:02.053Z,43.16
2023-03-31T12:20:40.747Z,43.84
2023-03-31T12:23:13.052Z,43.79
2023-03-31T12:25:52.611Z,43.28
2023-03-31T12:28:19.727Z,43.48
2023-03-31T12:30:46.695Z,43.90
2023-03-31T12:33:15.773Z,43.72
2023-03-31T12:35:52.955Z,43.72
2023-03-31T12:38:22.836Z,43.41
2023-03-31T12:41:04.660Z,43.88
2023-03-31T12:43:35.783Z,43.98
2023-03-31T12:46:36.837Z,43.90
2023-03-31T12:49:07.094Z,44.25
2023-03-31T12:51:44.227Z,44.40
2023-03-31T12:54:26.998Z,43.78
2023-03-31T12:57:00.014Z,44.29
2023-03-31T12:59:41.086Z,44.16
2023-03-31T13:02:14.994Z,44.21
2023-03-31T13:04:42.437Z,44.60
2023-03-31T13:07:29.046Z,44.41
2023-03-31T13:10:01.642Z,44.19
2023-03-31T13:12:28.710Z,44.37
2023-03-31T13:14:59.543Z,44.41
2023-03-31T13:17:31.612Z,44.32
2023-03-31T13:20:38.073Z,44.69
2023-03-31T13:23:04.882Z,44.74
2023-03-31T13:25:44.988Z,44.86
2023-03-31T13:28:39.224Z,44.96
2023-03-31T13:31:07.763Z,44.71
2023-03-31T13:33:41.208Z,44.82
2023-03-31T13:36:37.854Z,44.94
2023-03-31T13:39:32.451Z,44.68
2023-03-31T13:42:34.942Z,44.93
2023-03-31T13:45:32.492Z,44.97
2023-03-31T13:48:02.727Z,44.81
2023-03-31T13:50:41.712Z,44.90
2023-03-31T13:53:20.909Z,44.90
2023-03-31T13:55:53.502Z,44.73
2023-03-31T14:01:20.901Z,44.72
2023-03-31T14:04:15.569Z,44.97
2023-03-31T14:07:02.485Z,45.04
2023-03-31T14:09:34.338Z,44.80
2023-03-31T14:12:01.942Z,45.24
2023-03-31T14:14:29.953Z,45.21
2023-03-31T14:16:57.341Z,45.09
2023-03-31T14:19:30.852Z,45.24
2023-03-31T14:22:03.663Z,45.16
2023-03-31T14:24:45.117Z,45.24
2023-03-31T14:27:21.123Z,45.25
2023-03-31T14:29:51.636Z,45.29
2023-03-31T14:32:55.562Z,45.48
2023-03-31T14:35:31.873Z,45.64
2023-03-31T14:37:59.083Z,45.65
2023-03-31T14:40:26.537Z,45.68
2023-03-31T14:42:53.419Z,45.71
2023-03-31T14:45:25.617Z,45.66
2023-03-31T14:47:59.852Z,45.45
2023-03-31T14:50:32.679Z,45.83
2023-03-31T14:53:01.364Z,45.82
2023-03-31T14:55:44.155Z,45.47
2023-03-31T14:58:24.481Z,45.52
2023-03-31T15:00:51.811Z,45.47
2023-03-31T15:03:18.665Z,45.41
2023-03-31T15:05:48.815Z,45.50
2023-03-31T15:08:18.727Z,45.54
2023-03-31T15:10:54.030Z,45.73
2023-03-31T15:13:25.673Z,45.96
2023-03-31T15:15:52.797Z,45.41
2023-03-31T15:18:19.558Z,45.58
2023-03-31T15:20:46.739Z,45.70
2023-03-31T15:23:30.791Z,45.80
2023-03-31T15:25:59.145Z,45.71
2023-03-31T15:28:27.589Z,45.58
2023-03-31T15:31:03.500Z,45.57
2023-03-31T15:33:41.501Z,45.71
2023-03-31T15:36:10.628Z,45.74
2023-03-31T15:38:37.421Z,45.50
2023-03-31T15:41:04.522Z,45.68
2023-03-31T15:43:45.229Z,45.65
2023-03-31T15:46:40.030Z,45.84
2023-03-31T15:49:21.070Z,45.67
2023-03-31T15:51:48.777Z,45.56
2023-03-31T15:54:40.974Z,45.65
2023-03-31T15:57:09.075Z,45.83
2023-03-31T15:59:55.779Z,45.53
2023-03-31T16:02:27.962Z,45.84
2023-03-31T16:04:56.979Z,45.73
2023-03-31T16:07:27.414Z,45.94
2023-03-31T16:09:57.379Z,45.53
2023-03-31T16:12:32.204Z,45.76
2023-03-31T16:15:05.894Z,45.76
2023-03-31T16:17:36.760Z,45.92
2023-03-31T16:20:07.570Z,45.54
2023-03-31T16:22:43.303Z,45.42
2023-03-31T16:25:21.366Z,45.52
2023-03-31T16:27:54.641Z,45.81
2023-03-31T16:30:23.722Z,45.76
2023-03-31T16:33:10.154Z,45.76
2023-03-31T16:35:38.615Z,45.80
2023-03-31T16:38:06.756Z,45.53
2023-03-31T16:40:38.632Z,45.43
2023-03-31T16:43:15.897Z,45.36
2023-03-31T16:45:52.917Z,45.38
2023-03-31T16:48:20.889Z,45.77
2023-03-31T16:50:49.066Z,45.40
2023-03-31T16:53:22.224Z,45.77
2023-03-31T16:55:49.359Z,45.89
2023-03-31T16:58:16.677Z,45.64
2023-03-31T17:00:43.694Z,45.50
2023-03-31T17:03:11.830Z,45.49
2023-03-31T17:05:43.493Z,45.50
2023-03-31T17:08:11.148Z,45.33
2023-03-31T17:10:38.832Z,45.62
2023-03-31T17:13:06.546Z,45.93
2023-03-31T17:15:36.436Z,45.77
2023-03-31T17:18:06.334Z,45.73
2023-03-31T17:20:34.263Z,45.41
2023-03-31T17:23:01.636Z,45.47
2023-03-31T17:25:28.565Z,45.35
2023-03-31T17:27:56.281Z,45.40
2023-03-31T17:30:23.289Z,45.54
2023-03-31T17:32:51.563Z,45.02
2023-03-31T17:35:22.632Z,45.68
2023-03-31T17:37:51.669Z,45.15
2023-03-31T17:40:18.452Z,45.47
2023-03-31T17:42:47.210Z,45.19
2023-03-31T17:45:14.338Z,45.42
2023-03-31T17:47:42.066Z,45.20
2023-03-31T17:50:09.403Z,45.42
2023-03-31T17:52:36.653Z,45.42
2023-03-31T17:55:04.336Z,45.20
2023-03-31T17:57:32.191Z,45.30
2023-03-31T17:59:59.195Z,44.94
2023-03-31T18:02:26.344Z,45.37
2023-03-31T18:04:53.476Z,45.05
2023-03-31T18:07:23.147Z,45.28
2023-03-31T18:09:49.947Z,45.18
2023-03-31T18:12:17.683Z,45.20
2023-03-31T18:14:44.654Z,45.28
2023-03-31T18:17:14.911Z,45.49
2023-03-31T18:19:42.883Z,45.53
2023-03-31T18:22:10.220Z,45.34
2023-03-31T18:24:38.477Z,45.35
2023-03-31T18:27:05.779Z,45.69
2023-03-31T18:29:32.776Z,45.76
2023-03-31T18:32:00.124Z,45.24
2023-03-31T18:34:27.293Z,45.63
2023-03-31T18:36:54.670Z,45.72
2023-03-31T18:39:22.159Z,45.46
2023-03-31T18:41:49.299Z,45.54
2023-03-31T18:44:17.470Z,45.86
2023-03-31T18:46:45.132Z,45.85
2023-03-31T18:49:12.085Z,45.89
2023-03-31T18:51:39.222Z,45.78
2023-03-31T18:54:06.262Z,45.92
2023-03-31T18:56:33.390Z,45.63
2023-03-31T18:59:00.191Z,45.87
2023-03-31T19:01:27.484Z,45.98
2023-03-31T19:03:54.463Z,45.96
2023-03-31T19:06:22.525Z,45.84
2023-03-31T19:08:49.488Z,46.09
2023-03-31T19:11:17.063Z,45.92
2023-03-31T19:13:44.009Z,46.18
2023-03-31T19:16:12.311Z,45.72
2023-03-31T19:18:39.535Z,46.47
2023-03-31T19:21:06.776Z,46.12
2023-03-31T19:23:34.206Z,46.58
2023-03-31T19:26:02.988Z,46.24
2023-03-31T19:28:30.556Z,46.29
2023-03-31T19:30:58.043Z,46.75
2023-03-31T19:33:25.552Z,46.60
2023-03-31T19:35:52.918Z,47.01
2023-03-31T19:38:21.632Z,46.76
2023-03-31T19:40:49.120Z,46.88
2023-03-31T19:43:23.310Z,46.68
2023-03-31T19:45:52.928Z,47.02
2023-03-31T19:48:20.118Z,46.63
2023-03-31T19:50:51.151Z,46.64
2023-03-31T19:53:18.558Z,46.34
2023-03-31T19:55:57.508Z,46.27
2023-03-31T20:02:53.369Z,45.90
2023-03-31T20:05:21.038Z,45.94
2023-03-31T20:07:48.076Z,45.97
2023-03-31T20:10:15.960Z,45.92
2023-03-31T20:12:43.273Z,45.63
2023-03-31T20:15:10.557Z,45.86
2023-03-31T20:17:38.659Z,45.80
2023-03-31T20:20:06.380Z,45.67
2023-03-31T20:22:33.313Z,45.78
2023-03-31T20:25:01.088Z,45.66
2023-03-31T20:27:28.066Z,45.50
2023-03-31T20:29:55.620Z,45.84
2023-03-31T20:32:24.166Z,45.65
2023-03-31T20:34:51.746Z,45.62
2023-03-31T20:37:19.070Z,45.65
2023-03-31T20:39:46.556Z,45.67
2023-03-31T20:42:13.360Z,45.73
2023-03-31T20:44:41.085Z,45.33
2023-03-31T20:47:08.350Z,45.38
2023-03-31T20:49:35.836Z,45.33
2023-03-31T20:52:02.713Z,45.37
2023-03-31T20:54:29.841Z,45.42
2023-03-31T20:56:56.718Z,45.29
2023-03-31T20:59:24.071Z,45.25
2023-03-31T21:01:50.863Z,45.30
2023-03-31T21:04:18.081Z,45.13
2023-03-31T21:06:46.448Z,44.99
2023-03-31T21:09:13.965Z,45.45
2023-03-31T21:11:40.913Z,45.13
2023-03-31T21:14:10.226Z,45.49
2023-03-31T21:16:37.515Z,45.16
2023-03-31T21:19:04.659Z,45.11
2023-03-31T21:21:31.608Z,45.47
2023-03-31T21:23:58.926Z,45.44
2023-03-31T21:26:25.907Z,45.44
2023-03-31T21:28:55.590Z,45.39
2023-03-31T21:31:24.256Z,45.45
2023-03-31T21:33:52.273Z,45.24
2023-03-31T21:36:22.446Z,45.22
2023-03-31T21:38:50.552Z,45.43
2023-03-31T21:41:19.129Z,45.53
2023-03-31T21:43:46.456Z,45.38
2023-03-31T21:46:20.792Z,45.44
2023-03-31T21:48:48.884Z,45.27
2023-03-31T21:51:17.069Z,45.42
2023-03-31T21:53:44.398Z,45.56
2023-03-31T21:56:11.226Z,45.44
2023-03-31T21:58:38.359Z,45.47
2023-03-31T22:01:05.348Z,45.63
2023-03-31T22:03:34.603Z,45.50
2023-03-31T22:06:03.484Z,45.47
2023-03-31T22:08:31.623Z,45.53
2023-03-31T22:11:00.344Z,45.39
2023-03-31T22:13:28.124Z,45.61
2023-03-31T22:15:54.943Z,45.68
2023-03-31T22:18:22.163Z,45.58
2023-03-31T22:20:49.188Z,45.78
2023-03-31T22:23:16.739Z,45.84
2023-03-31T22:25:43.688Z,45.62
2023-03-31T22:28:16.128Z,45.76
2023-03-31T22:30:42.965Z,45.87
2023-03-31T22:33:10.083Z,46.03
2023-03-31T22:35:37.048Z,45.99
2023-03-31T22:38:06.102Z,45.65
2023-03-31T22:40:34.636Z,45.76
2023-03-31T22:43:01.839Z,45.88
2023-03-31T22:45:28.614Z,45.86
2023-03-31T22:47:56.569Z,46.00
2023-03-31T22:50:23.848Z,45.85
2023-03-31T22:52:50.966Z,45.90
2023-03-31T22:55:17.770Z,45.69
2023-03-31T22:57:44.962Z,45.93
2023-03-31T23:00:12.870Z,45.93
2023-03-31T23:02:40.648Z,45.89
2023-03-31T23:05:08.004Z,45.80
2023-03-31T23:07:35.174Z,46.10
2023-03-31T23:10:02.230Z,45.82
2023-03-31T23:12:29.411Z,45.87
2023-03-31T23:14:56.427Z,46.04
2023-03-31T23:17:23.630Z,46.06
2023-03-31T23:19:50.534Z,45.90
2023-03-31T23:22:19.069Z,45.84
2023-03-31T23:24:46.615Z,45.87
2023-03-31T23:27:13.622Z,45.95
2023-03-31T23:29:41.427Z,46.07
2023-03-31T23:32:08.548Z,45.99
2023-03-31T23:34:35.413Z,46.09
2023-03-31T23:37:02.428Z,46.29
2023-03-31T23:39:29.285Z,46.28
2023-03-31T23:41:57.238Z,46.36
2023-03-31T23:44:23.970Z,46.13
2023-03-31T23:46:51.284Z,46.23
2023-03-31T23:49:18.113Z,46.10
2023-03-31T23:51:45.290Z,46.24
2023-03-31T23:54:12.310Z,46.32
2023-03-31T23:56:39.400Z,46.40
2023-03-31T23:59:06.507Z,46.46
